createdAt,value
2023-03-04T00:03:40.273Z,3.95
2023-03-04T00:08:42.359Z,5.90
2023-03-04T00:13:44.402Z,7.00
2023-03-04T00:18:46.534Z,3.97
2023-03-04T00:23:48.908Z,5.30
2023-03-04T00:28:50.929Z,4.53
2023-03-04T00:33:53.007Z,4.18
2023-03-04T00:38:55.075Z,2.75
2023-03-04T00:43:57.222Z,3.97
2023-03-04T00:48:59.328Z,5.53
2023-03-04T00:54:01.397Z,4.85
2023-03-04T00:59:03.600Z,4.90
2023-03-04T01:04:06.998Z,3.15
2023-03-04T01:09:09.232Z,4.15
2023-03-04T01:14:11.640Z,6.40
2023-03-04T01:19:13.743Z,6.18
2023-03-04T01:24:15.913Z,5.30
2023-03-04T01:29:18.206Z,5.20
2023-03-04T01:34:20.331Z,3.67
2023-03-04T01:39:22.593Z,4.97
2023-03-04T01:44:26.896Z,5.50
2023-03-04T01:49:29.748Z,5.68
2023-03-04T01:54:31.898Z,6.85
2023-03-04T01:59:34.003Z,3.00
2023-03-04T02:04:36.166Z,4.57
2023-03-04T02:09:38.398Z,2.92
2023-03-04T02:14:40.603Z,3.03
2023-03-04T02:19:49.727Z,2.88
2023-03-04T02:25:06.288Z,3.53
2023-03-04T02:30:11.958Z,3.50
2023-03-04T02:35:18.300Z,1.98
2023-03-04T02:40:28.345Z,4.20
2023-03-04T02:45:44.930Z,1.38
2023-03-04T02:50:52.564Z,3.45
2023-03-04T02:55:54.627Z,2.92
2023-03-04T03:00:58.543Z,4.13
2023-03-04T03:06:02.738Z,4.03
2023-03-04T03:11:05.504Z,4.50
2023-03-04T03:16:09.062Z,4.47
2023-03-04T03:21:11.198Z,3.40
2023-03-04T03:26:13.360Z,2.78
2023-03-04T03:31:15.742Z,3.25
2023-03-04T03:36:21.916Z,1.38
2023-03-04T03:41:24.160Z,3.70
2023-03-04T03:46:27.373Z,3.22
2023-03-04T03:51:29.453Z,2.47
2023-03-04T03:56:31.473Z,2.75
2023-03-04T04:01:33.875Z,2.58
2023-03-04T04:06:35.884Z,2.88
2023-03-04T04:11:37.956Z,2.80
2023-03-04T04:16:40.507Z,2.42
2023-03-04T04:21:42.513Z,1.83
2023-03-04T04:26:44.559Z,1.90
2023-03-04T04:31:46.660Z,1.80
2023-03-04T04:36:49.188Z,3.88
2023-03-04T04:41:51.236Z,1.42
2023-03-04T04:46:53.301Z,1.45
2023-03-04T04:51:55.367Z,1.58
2023-03-04T04:56:57.409Z,1.00
2023-03-04T05:01:59.461Z,3.90
2023-03-04T05:07:01.492Z,4.00
2023-03-04T05:12:03.716Z,3.60
2023-03-04T05:17:05.830Z,1.98
2023-03-04T05:22:08.121Z,3.97
2023-03-04T05:27:10.254Z,3.97
2023-03-04T05:32:12.377Z,1.98
2023-03-04T05:37:14.449Z,1.48
2023-03-04T05:42:16.451Z,2.85
2023-03-04T05:47:18.530Z,4.75
2023-03-04T05:52:20.824Z,1.95
2023-03-04T05:57:22.867Z,1.98
2023-03-04T06:02:24.989Z,2.58
2023-03-04T06:07:27.048Z,3.10
2023-03-04T06:12:29.153Z,4.20
2023-03-04T06:17:31.198Z,2.08
2023-03-04T06:22:34.447Z,2.35
2023-03-04T06:27:36.533Z,2.20
2023-03-04T06:32:38.605Z,3.80
2023-03-04T06:37:40.931Z,2.88
2023-03-04T06:42:43.567Z,1.80
2023-03-04T06:47:45.665Z,3.45
2023-03-04T06:52:49.326Z,2.67
2023-03-04T06:57:51.433Z,3.28
2023-03-04T07:02:55.129Z,3.00
2023-03-04T07:07:57.539Z,3.67
2023-03-04T07:12:59.598Z,2.53
2023-03-04T07:18:01.652Z,4.28
2023-03-04T07:23:03.704Z,5.65
2023-03-04T07:28:05.737Z,2.85
2023-03-04T07:33:07.888Z,3.50
2023-03-04T07:38:10.297Z,3.05
2023-03-04T07:43:13.113Z,3.47
2023-03-04T07:48:15.140Z,4.22
2023-03-04T07:53:17.178Z,1.95
2023-03-04T07:58:20.007Z,4.35
2023-03-04T08:03:22.049Z,2.30
2023-03-04T08:08:24.103Z,4.28
2023-03-04T08:13:26.204Z,2.28
2023-03-04T08:18:28.629Z,3.03
2023-03-04T08:23:30.719Z,4.07
2023-03-04T08:28:32.820Z,1.58
2023-03-04T08:33:34.960Z,3.75
2023-03-04T08:38:37.182Z,2.92
2023-03-04T08:43:39.739Z,4.55
2023-03-04T08:48:41.761Z,4.97
2023-03-04T08:53:44.188Z,4.97
2023-03-04T08:58:46.311Z,6.55
2023-03-04T09:03:48.724Z,9.77
2023-03-04T09:08:51.000Z,7.25
2023-03-04T09:13:53.501Z,6.15
2023-03-04T09:18:55.626Z,8.82
2023-03-04T09:23:57.659Z,10.40
2023-03-04T09:29:01.656Z,10.02
2023-03-04T09:34:03.764Z,10.48
2023-03-04T09:39:06.269Z,11.60
2023-03-04T09:44:36.857Z,12.02
2023-03-04T09:49:42.481Z,11.85
2023-03-04T09:55:33.941Z,12.38
2023-03-04T10:00:44.014Z,9.23
2023-03-04T10:06:11.446Z,12.80
2023-03-04T10:11:15.873Z,11.40
2023-03-04T10:16:22.907Z,10.40
2023-03-04T10:21:39.072Z,13.43
2023-03-04T10:31:46.767Z,12.38
2023-03-04T10:37:07.029Z,12.45
2023-03-04T10:42:15.204Z,11.18
2023-03-04T10:47:17.601Z,12.10
2023-03-04T10:52:39.532Z,12.23
2023-03-04T10:57:44.804Z,11.48
2023-03-04T11:02:48.622Z,9.90
2023-03-04T11:07:56.296Z,11.02
2023-03-04T11:12:59.218Z,13.25
2023-03-04T11:18:05.348Z,9.27
2023-03-04T11:23:15.080Z,14.57
2023-03-04T11:28:24.305Z,10.57
2023-03-04T11:33:42.224Z,11.80
2023-03-04T11:38:53.956Z,7.78
2023-03-04T11:43:56.184Z,9.63
2023-03-04T11:49:14.259Z,9.60
2023-03-04T11:55:11.766Z,11.73
2023-03-04T12:00:22.372Z,9.77
2023-03-04T12:06:05.351Z,10.55
2023-03-04T12:11:32.156Z,9.23
2023-03-04T12:17:04.960Z,8.90
2023-03-04T12:22:19.049Z,15.45
2023-03-04T12:27:27.808Z,9.73
2023-03-04T12:32:35.079Z,12.38
2023-03-04T12:37:45.856Z,12.35
2023-03-04T12:43:30.568Z,9.77
2023-03-04T12:48:39.518Z,10.15
2023-03-04T12:54:26.221Z,8.30
2023-03-04T13:05:13.247Z,14.60
2023-03-04T13:10:18.142Z,8.27
2023-03-04T13:15:23.050Z,7.25
2023-03-04T13:20:31.051Z,8.30
2023-03-04T13:25:41.122Z,6.85
2023-03-04T13:31:06.827Z,5.22
2023-03-04T13:36:47.785Z,9.23
2023-03-04T13:41:54.546Z,13.60
2023-03-04T13:46:56.796Z,6.47
2023-03-04T13:51:59.404Z,7.32
2023-03-04T13:57:01.356Z,4.55
2023-03-04T14:02:17.083Z,10.30
2023-03-04T14:07:35.168Z,6.32
2023-03-04T14:12:50.017Z,4.47
2023-03-04T14:17:55.515Z,3.92
2023-03-04T14:22:59.784Z,7.30
2023-03-04T14:28:17.061Z,5.15
2023-03-04T14:33:23.406Z,9.00
2023-03-04T14:38:32.027Z,6.13
2023-03-04T14:43:44.830Z,5.32
2023-03-04T14:48:52.437Z,7.97
2023-03-04T14:53:57.744Z,5.88
2023-03-04T14:59:00.405Z,7.18
2023-03-04T15:04:08.428Z,6.00
2023-03-04T15:09:22.683Z,4.72
2023-03-04T15:14:43.014Z,6.30
2023-03-04T15:19:45.008Z,12.70
2023-03-04T15:24:49.623Z,10.88
2023-03-04T15:29:56.053Z,12.45
2023-03-04T15:34:59.459Z,11.02
2023-03-04T15:40:02.972Z,4.38
2023-03-04T15:45:23.436Z,5.72
2023-03-04T15:50:28.968Z,7.13
2023-03-04T15:55:32.248Z,11.77
2023-03-04T16:00:34.655Z,12.10
2023-03-04T16:05:37.988Z,5.40
2023-03-04T16:10:40.464Z,4.75
2023-03-04T16:15:43.413Z,5.72
2023-03-04T16:20:48.092Z,8.05
2023-03-04T16:25:55.369Z,8.20
2023-03-04T16:30:57.442Z,5.30
2023-03-04T16:35:59.644Z,6.07
2023-03-04T16:41:02.139Z,6.53
2023-03-04T16:46:04.303Z,14.30
2023-03-04T16:51:18.632Z,18.20
2023-03-04T16:56:20.893Z,11.65
2023-03-04T17:01:29.300Z,16.65
2023-03-04T17:06:31.466Z,8.82
2023-03-04T17:11:34.854Z,7.50
2023-03-04T17:16:36.894Z,9.43
2023-03-04T17:21:39.046Z,8.50
2023-03-04T17:26:42.686Z,8.75
2023-03-04T17:31:44.829Z,8.25
2023-03-04T17:36:47.036Z,12.68
2023-03-04T17:41:53.051Z,8.20
2023-03-04T17:46:55.238Z,7.40
2023-03-04T17:51:57.343Z,8.38
2023-03-04T17:56:59.435Z,13.38
2023-03-04T18:02:01.499Z,11.75
2023-03-04T18:07:03.534Z,7.03
2023-03-04T18:12:06.330Z,9.40
2023-03-04T18:17:08.475Z,13.00
2023-03-04T18:22:10.549Z,7.20
2023-03-04T18:27:12.602Z,12.93
2023-03-04T18:32:14.750Z,10.65
2023-03-04T18:37:16.966Z,8.80
2023-03-04T18:42:19.036Z,9.05
2023-03-04T18:47:22.408Z,10.15
2023-03-04T18:52:24.470Z,11.35
2023-03-04T18:57:26.616Z,7.70
2023-03-04T19:02:32.691Z,9.23
2023-03-04T19:07:34.757Z,7.78
2023-03-04T19:12:36.820Z,10.07
2023-03-04T19:17:39.852Z,7.13
2023-03-04T19:22:42.456Z,9.15
2023-03-04T19:27:44.537Z,8.52
2023-03-04T19:32:47.521Z,10.60
2023-03-04T19:37:49.553Z,7.57
2023-03-04T19:42:51.553Z,6.75
2023-03-04T19:47:53.603Z,10.90
2023-03-04T19:52:55.685Z,7.32
2023-03-04T19:57:57.707Z,7.00
2023-03-04T20:03:00.107Z,7.40
2023-03-04T20:08:02.823Z,6.90
2023-03-04T20:13:06.686Z,8.63
2023-03-04T20:18:08.785Z,7.75
2023-03-04T20:23:10.922Z,4.82
2023-03-04T20:28:12.938Z,7.20
2023-03-04T20:33:17.646Z,7.47
2023-03-04T20:38:19.674Z,8.10
2023-03-04T20:43:23.692Z,9.90
2023-03-04T20:48:25.717Z,11.05
2023-03-04T20:53:27.773Z,8.70
2023-03-04T20:58:29.781Z,9.93
2023-03-04T21:03:32.212Z,8.98
2023-03-04T21:08:34.745Z,7.88
2023-03-04T21:13:37.136Z,7.55
2023-03-04T21:18:39.258Z,9.55
2023-03-04T21:23:41.371Z,9.00
2023-03-04T21:28:43.836Z,5.18
2023-03-04T21:33:47.124Z,5.18
2023-03-04T21:38:49.532Z,6.63
2023-03-04T21:43:52.212Z,8.52
2023-03-04T21:48:54.253Z,9.32
2023-03-04T21:53:56.284Z,6.78
2023-03-04T21:59:00.164Z,5.80
2023-03-04T22:04:03.028Z,14.32
2023-03-04T22:09:05.643Z,8.85
2023-03-04T22:14:07.744Z,8.90
2023-03-04T22:19:09.805Z,7.75
2023-03-04T22:24:11.860Z,8.35
2023-03-04T22:29:14.097Z,14.55
2023-03-04T22:34:16.813Z,5.97
2023-03-04T22:39:23.189Z,9.63
2023-03-04T22:44:25.748Z,6.07
2023-03-04T22:49:27.853Z,5.22
2023-03-04T22:54:29.923Z,5.60
2023-03-04T22:59:32.122Z,6.78
2023-03-04T23:04:34.144Z,6.38
2023-03-04T23:09:36.312Z,5.88
2023-03-04T23:14:39.891Z,3.80
2023-03-04T23:19:41.914Z,6.07
2023-03-04T23:24:43.974Z,8.98
2023-03-04T23:29:46.058Z,5.90
2023-03-04T23:34:53.125Z,6.57
2023-03-04T23:39:55.162Z,5.63
2023-03-04T23:44:57.190Z,5.28
2023-03-04T23:50:00.315Z,4.63
2023-03-04T23:55:02.357Z,6.70
